Terminal Aerodrome Forecast
Issued by NWS Mt. Holly, NJ

Home | Current Version | Previous Version | Text Only | Print | Product List | Glossary On
Versions: 1 2 3 4 5 6 7 8 9 10 11 12 13 14 15 16 17 18
000
FTUS41 KPHI 190520
TAFILG
TAF
KILG 190520Z 1906/2006 21014G26KT 6SM -SHRA SCT050 OVC150
      WS020/21045KT
      TEMPO 1906/1910 4SM SHRA OVC050
     FM191000 23017G30KT P6SM VCSH OVC035
     FM191200 27016G31KT P6SM BKN035
     FM191400 29017G39KT P6SM SCT035
     FM192000 29015G29KT P6SM SKC
     FM200200 28012KT P6SM SKC=

USA.gov is the U.S. government's official web portal to all federal, state and local government web resources and services.